Time;durP1;ratioP1;P1;durP2;ratioP2;P2;SDS_P1;SDS_P2;PMS_P1;PMS_P2;Temp;Humidity;BMP_temperature;BMP_pressure;BME280_temperature;BME280_humidity;BME280_pressure;Samples;Min_cycle;Max_cycle;Signal;HPM_P1;HPM_P2
2022/07/15 00:00:13;;;;;;;1.42;1.20;;;;;;;25.86;40.20;99360.94;4484745;32;33784;-75
2022/07/15 00:02:41;;;;;;;1.80;1.42;;;;;;;25.65;41.01;99400.13;4484397;32;33193;-78
2022/07/15 00:05:09;;;;;;;2.08;1.52;;;;;;;25.84;40.74;99439.13;4483912;32;33472;-74
2022/07/15 00:07:37;;;;;;;1.70;1.30;;;;;;;25.87;40.58;99432.03;4483251;32;34216;-75
2022/07/15 00:10:14;;;;;;;1.50;1.30;;;;;;;25.75;41.05;99430.16;4484226;32;34731;-74
2022/07/15 00:12:50;;;;;;;2.42;1.33;;;;;;;26.05;40.37;99399.94;4482971;32;33391;-75
2022/07/15 00:15:20;;;;;;;1.37;1.20;;;;;;;25.86;40.61;99386.75;4485004;32;33810;-75
2022/07/15 00:17:48;;;;;;;1.73;1.25;;;;;;;25.87;40.92;99409.81;4483398;32;34159;-74
2022/07/15 00:20:17;;;;;;;1.95;1.55;;;;;;;25.54;41.50;99422.88;4483446;32;34846;-74
2022/07/15 00:22:46;;;;;;;2.10;1.33;;;;;;;25.89;41.07;99410.28;4484575;32;33661;-75
2022/07/15 00:25:14;;;;;;;1.67;1.23;;;;;;;25.73;41.41;99415.81;4484132;32;33585;-78
2022/07/15 00:27:56;;;;;;;2.12;1.40;;;;;;;25.32;42.40;99398.50;4484733;32;34169;-75
2022/07/15 00:30:29;;;;;;;1.37;1.27;;;;;;;25.15;42.83;99394.06;4484420;32;33943;-75
2022/07/15 00:32:57;;;;;;;1.70;1.20;;;;;;;25.25;42.86;99376.91;4483255;32;34137;-75
2022/07/15 00:35:26;;;;;;;2.00;1.60;;;;;;;25.26;42.59;99374.94;4484745;32;34692;-75
2022/07/15 00:37:53;;;;;;;1.83;1.42;;;;;;;25.50;41.98;99363.66;4484371;32;34909;-75
2022/07/15 00:40:21;;;;;;;2.05;1.30;;;;;;;25.29;42.56;99363.09;4484160;32;33977;-75
2022/07/15 00:42:49;;;;;;;1.67;1.20;;;;;;;25.74;42.53;99364.62;4484541;32;34450;-75
2022/07/15 00:45:18;;;;;;;1.95;1.30;;;;;;;25.63;42.84;99377.47;4484379;32;33921;-76
2022/07/15 00:47:51;;;;;;;1.62;1.30;;;;;;;25.44;42.69;99353.97;4470512;32;34299;-75
2022/07/15 00:50:20;;;;;;;1.87;1.35;;;;;;;25.86;41.96;99350.63;4484388;32;34515;-76
2022/07/15 00:52:54;;;;;;;3.70;1.48;;;;;;;25.74;42.35;99354.31;4484305;32;33200;-75
2022/07/15 00:55:23;;;;;;;2.37;1.65;;;;;;;25.80;42.39;99352.06;4483059;32;34113;-75
2022/07/15 00:57:55;;;;;;;1.70;1.30;;;;;;;25.76;42.38;99348.41;4484384;32;35031;-75
2022/07/15 01:00:23;;;;;;;1.52;1.33;;;;;;;26.18;41.40;99351.41;4484428;32;33723;-75
2022/07/15 01:02:52;;;;;;;1.98;1.30;;;;;;;26.27;41.41;99348.41;4484233;32;34317;-75
2022/07/15 01:05:21;;;;;;;2.33;1.40;;;;;;;25.77;42.39;99359.16;4484580;32;33588;-76
2022/07/15 01:07:49;;;;;;;1.40;1.20;;;;;;;25.75;42.50;99374.59;4484688;32;34210;-76
2022/07/15 01:10:18;;;;;;;2.35;1.60;;;;;;;26.05;41.97;99391.63;4483885;32;33885;-76
2022/07/15 01:12:47;;;;;;;2.05;1.48;;;;;;;26.04;41.87;99390.00;4483908;32;33546;-75
2022/07/15 01:15:16;;;;;;;2.37;1.70;;;;;;;25.84;42.43;99404.97;4483505;32;33604;-79
2022/07/15 01:17:45;;;;;;;2.67;1.73;;;;;;;25.80;42.22;99390.97;4484508;32;34082;-75
2022/07/15 01:20:14;;;;;;;2.62;1.80;;;;;;;25.67;42.64;99404.16;4483988;32;34671;-75
2022/07/15 01:22:43;;;;;;;1.95;1.40;;;;;;;25.88;42.07;99411.44;4484057;32;33102;-74
2022/07/15 01:25:10;;;;;;;3.08;1.58;;;;;;;25.90;42.25;99411.91;4484071;32;33823;-75
2022/07/15 01:27:38;;;;;;;2.00;1.50;;;;;;;25.85;41.98;99431.59;4484202;32;33393;-74
2022/07/15 01:30:06;;;;;;;1.90;1.60;;;;;;;25.90;42.17;99417.47;4484370;32;34901;-74
2022/07/15 01:32:34;;;;;;;4.15;1.45;;;;;;;25.91;42.25;99421.84;4483665;32;33660;-74
2022/07/15 01:35:01;;;;;;;2.10;1.67;;;;;;;25.89;42.21;99426.94;4483343;32;34048;-74
2022/07/15 01:37:29;;;;;;;2.37;1.87;;;;;;;25.85;42.50;99423.25;4483448;31;34290;-74
2022/07/15 01:39:57;;;;;;;3.12;1.60;;;;;;;25.72;43.02;99408.63;4484240;32;33851;-74
2022/07/15 01:42:25;;;;;;;2.45;1.67;;;;;;;25.60;43.41;99406.78;4484049;32;33605;-75
2022/07/15 01:44:52;;;;;;;1.45;1.27;;;;;;;25.86;42.86;99414.56;4483760;32;34721;-75
2022/07/15 01:47:20;;;;;;;2.90;1.92;;;;;;;25.89;42.80;99413.06;4484042;32;35079;-77
2022/07/15 01:49:48;;;;;;;1.77;1.60;;;;;;;25.68;43.62;99411.34;4484326;32;34753;-74
2022/07/15 01:52:17;;;;;;;2.90;1.70;;;;;;;25.62;43.83;99415.56;4483631;32;34353;-74
2022/07/15 01:54:44;;;;;;;2.45;1.90;;;;;;;25.08;45.43;99416.88;4483224;32;33911;-75
2022/07/15 01:57:12;;;;;;;4.10;2.00;;;;;;;25.05;45.56;99408.44;4484152;32;34102;-76
2022/07/15 01:59:41;;;;;;;2.08;1.60;;;;;;;24.81;46.08;99409.34;4483673;32;34023;-75
2022/07/15 02:02:09;;;;;;;3.85;1.60;;;;;;;25.04;45.55;99417.94;4483828;32;33349;-74
2022/07/15 02:04:37;;;;;;;3.00;2.10;;;;;;;25.35;44.82;99434.69;4483495;32;33608;-76
2022/07/15 02:07:04;;;;;;;3.22;1.80;;;;;;;25.13;45.41;99432.47;4483210;32;34462;-75
2022/07/15 02:09:32;;;;;;;2.45;1.70;;;;;;;25.03;45.77;99419.09;4483874;32;33474;-77
2022/07/15 02:12:00;;;;;;;2.35;1.50;;;;;;;25.27;45.29;99402.34;4483642;32;33456;-75
2022/07/15 02:14:33;;;;;;;2.15;1.67;;;;;;;25.47;45.03;99391.34;4483179;32;34074;-75
2022/07/15 02:17:02;;;;;;;1.85;1.70;;;;;;;25.24;45.34;99397.50;4483658;32;34193;-74
2022/07/15 02:19:29;;;;;;;2.72;1.60;;;;;;;25.29;45.37;99405.59;4483798;32;34104;-74
2022/07/15 02:21:57;;;;;;;2.33;1.65;;;;;;;25.33;45.35;99416.78;4483666;32;33261;-74
2022/07/15 02:24:25;;;;;;;4.03;2.10;;;;;;;25.68;44.69;99429.97;4482616;32;33705;-75
2022/07/15 02:26:52;;;;;;;2.10;1.70;;;;;;;25.41;45.08;99431.66;4483475;32;34232;-79
2022/07/15 02:29:19;;;;;;;2.58;1.52;;;;;;;24.80;46.72;99447.41;4482996;32;33748;-75
2022/07/15 02:31:48;;;;;;;2.10;1.58;;;;;;;24.96;46.12;99464.09;4484028;32;33184;-75
2022/07/15 02:34:15;;;;;;;1.98;1.48;;;;;;;24.90;46.12;99485.75;4485104;32;34993;-76
2022/07/15 02:36:43;;;;;;;2.00;1.70;;;;;;;25.16;45.22;99501.97;4485758;32;33438;-75
2022/07/15 02:39:11;;;;;;;2.40;1.48;;;;;;;25.52;44.23;99516.06;4485527;32;35352;-75
2022/07/15 02:41:39;;;;;;;1.52;1.40;;;;;;;25.08;44.73;99522.38;4485904;32;33571;-76
2022/07/15 02:44:07;;;;;;;1.50;1.30;;;;;;;25.45;43.67;99521.44;4484756;32;33806;-75
2022/07/15 02:46:35;;;;;;;1.92;1.50;;;;;;;25.37;43.70;99514.88;4485658;32;34218;-75
2022/07/15 02:49:03;;;;;;;1.85;1.48;;;;;;;25.50;43.56;99519.19;4485553;32;34674;-74
2022/07/15 02:51:31;;;;;;;1.20;1.10;;;;;;;25.18;43.66;99513.53;4485643;32;33466;-75
2022/07/15 02:54:00;;;;;;;1.05;0.95;;;;;;;24.89;41.05;99508.31;4485193;32;33231;-79
2022/07/15 02:56:28;;;;;;;1.20;0.90;;;;;;;25.04;40.14;99512.31;4484007;32;34020;-75
2022/07/15 02:58:56;;;;;;;1.15;1.05;;;;;;;24.77;39.35;99504.41;4484534;32;34303;-72
2022/07/15 03:01:23;;;;;;;1.08;0.95;;;;;;;24.95;39.08;99504.94;4485378;32;34319;-75
2022/07/15 03:03:53;;;;;;;1.52;0.98;;;;;;;25.43;38.61;99504.31;4485242;32;34588;-75
2022/07/15 03:06:21;;;;;;;1.08;0.80;;;;;;;25.55;37.89;99499.50;4485253;32;34466;-75
2022/07/15 03:08:48;;;;;;;2.08;1.02;;;;;;;25.61;37.68;99511.16;4485463;32;34516;-75
2022/07/15 03:11:17;;;;;;;1.58;1.00;;;;;;;25.44;38.04;99509.50;4485692;32;34303;-76
2022/07/15 03:13:45;;;;;;;2.75;0.80;;;;;;;25.38;37.86;99499.84;4484941;32;33670;-77
2022/07/15 03:16:13;;;;;;;0.80;0.80;;;;;;;25.45;37.97;99496.44;4485467;32;34812;-78
2022/07/15 03:18:41;;;;;;;1.87;0.85;;;;;;;25.36;37.77;99496.59;4485376;32;33591;-78
2022/07/15 03:21:09;;;;;;;1.30;1.10;;;;;;;25.24;38.29;99505.78;4485556;32;34355;-76
2022/07/15 03:23:38;;;;;;;1.23;0.98;;;;;;;25.45;37.71;99515.88;4485249;32;34315;-77
2022/07/15 03:26:05;;;;;;;0.85;0.70;;;;;;;25.62;37.65;99517.53;4485187;32;34028;-78
2022/07/15 03:28:33;;;;;;;1.12;0.80;;;;;;;25.63;37.76;99514.38;4485009;32;34093;-77
2022/07/15 03:31:00;;;;;;;0.80;0.80;;;;;;;25.70;38.15;99519.31;4485253;32;34087;-77
2022/07/15 03:33:28;;;;;;;0.93;0.90;;;;;;;25.96;37.52;99518.84;4484619;32;34057;-77
2022/07/15 03:35:56;;;;;;;1.40;0.90;;;;;;;26.04;37.33;99509.53;4485505;32;33603;-77
2022/07/15 03:38:27;;;;;;;1.05;0.90;;;;;;;26.25;37.42;99502.91;4485153;31;34753;-78
2022/07/15 03:40:54;;;;;;;3.78;0.95;;;;;;;26.08;37.85;99504.87;4484814;32;33096;-77
2022/07/15 03:43:26;;;;;;;1.20;0.90;;;;;;;26.18;37.79;99504.34;4484275;32;34610;-77
2022/07/15 03:45:54;;;;;;;1.20;1.02;;;;;;;26.10;37.92;99507.28;4484063;32;34268;-77
2022/07/15 03:48:22;;;;;;;1.48;1.02;;;;;;;26.11;37.98;99508.91;4484949;32;34747;-77
2022/07/15 03:50:50;;;;;;;1.20;0.98;;;;;;;26.11;38.13;99508.91;4485362;32;33322;-78
2022/07/15 03:53:17;;;;;;;2.75;1.08;;;;;;;26.20;38.33;99512.31;4484630;32;33899;-77
2022/07/15 03:55:45;;;;;;;1.08;0.98;;;;;;;26.15;38.80;99513.37;4484731;32;33988;-78
2022/07/15 03:58:13;;;;;;;1.50;1.05;;;;;;;26.22;38.78;99542.53;4484145;32;34251;-77
2022/07/15 04:00:40;;;;;;;1.40;0.88;;;;;;;26.04;39.32;99556.00;4485243;32;33773;-78
2022/07/15 04:03:08;;;;;;;1.10;1.00;;;;;;;25.74;39.87;99550.81;4483059;32;34095;-77
2022/07/15 04:05:36;;;;;;;1.65;1.00;;;;;;;25.70;39.99;99555.44;4484476;32;35057;-77
2022/07/15 04:08:03;;;;;;;1.42;1.00;;;;;;;25.69;39.86;99548.28;4484745;32;34833;-77
2022/07/15 04:10:31;;;;;;;1.15;1.00;;;;;;;25.41;40.54;99540.78;4483525;32;33603;-77
2022/07/15 04:12:59;;;;;;;1.48;1.08;;;;;;;25.24;40.82;99541.88;4479387;32;33635;-77
2022/07/15 04:15:26;;;;;;;2.62;0.90;;;;;;;25.08;41.00;99536.25;4477299;32;34174;-76
2022/07/15 04:17:54;;;;;;;1.15;0.95;;;;;;;25.26;40.78;99533.22;4472294;32;33905;-76
2022/07/15 04:20:22;;;;;;;1.15;0.80;;;;;;;25.13;41.37;99538.75;4472780;32;33039;-76
2022/07/15 04:22:50;;;;;;;0.93;0.85;;;;;;;25.00;41.49;99539.16;4476882;32;33332;-76
2022/07/15 04:25:19;;;;;;;1.27;1.10;;;;;;;25.61;40.44;99543.69;4484705;32;34031;-76
2022/07/15 04:27:50;;;;;;;1.00;0.90;;;;;;;25.35;40.90;99570.75;4484650;32;34701;-77
2022/07/15 04:30:20;;;;;;;0.80;0.80;;;;;;;24.70;42.29;99559.66;4477477;32;33897;-77
2022/07/15 04:32:47;;;;;;;2.37;0.98;;;;;;;24.83;42.52;99557.69;4475222;32;34499;-76
2022/07/15 04:35:15;;;;;;;3.70;1.35;;;;;;;25.17;41.78;99566.63;4477088;32;34288;-78
2022/07/15 04:37:47;;;;;;;1.00;0.90;;;;;;;25.32;41.31;99563.16;4475895;32;33691;-78
2022/07/15 04:40:14;;;;;;;1.85;1.10;;;;;;;24.97;42.32;99573.97;4474921;32;35079;-76
2022/07/15 04:42:42;;;;;;;1.00;0.90;;;;;;;24.10;44.38;99564.00;4480022;32;34183;-85
2022/07/15 04:45:11;;;;;;;1.20;1.10;;;;;;;24.16;44.54;99563.44;4480152;32;33764;-75
2022/07/15 04:47:39;;;;;;;1.50;1.10;;;;;;;23.74;45.87;99571.06;4471115;32;33917;-81
2022/07/15 04:52:54;;;;;;;1.33;1.15;;;;;;;23.48;47.08;99572.13;4484069;32;34749;-82
2022/07/15 04:55:22;;;;;;;1.75;1.30;;;;;;;23.61;47.00;99578.53;4482925;32;34988;-77
2022/07/15 04:57:52;;;;;;;1.27;1.12;;;;;;;23.88;46.51;99573.53;4484159;32;34557;-85
2022/07/15 05:00:20;;;;;;;1.50;1.20;;;;;;;23.98;46.51;99575.09;4483969;32;33316;-81
2022/07/15 05:02:48;;;;;;;3.28;1.05;;;;;;;23.82;47.03;99577.69;4483166;32;34021;-76
2022/07/15 05:05:15;;;;;;;1.70;1.20;;;;;;;23.73;47.44;99584.09;4483749;32;34838;-86
2022/07/15 05:07:43;;;;;;;1.37;1.27;;;;;;;23.93;47.03;99570.53;4483193;32;34063;-78
2022/07/15 05:10:12;;;;;;;1.50;1.20;;;;;;;23.36;48.83;99572.06;4484210;32;34374;-75
2022/07/15 05:12:41;;;;;;;1.35;1.23;;;;;;;23.36;48.85;99562.94;4483767;32;33918;-78
2022/07/15 05:15:09;;;;;;;1.15;1.00;;;;;;;23.76;47.85;99560.47;4483849;32;34224;-75
2022/07/15 05:17:40;;;;;;;1.75;1.27;;;;;;;23.36;48.96;99577.59;4484071;32;33908;-78
2022/07/15 05:20:11;;;;;;;1.45;1.20;;;;;;;22.85;50.38;99572.09;4483081;32;33412;-77
2022/07/15 05:22:39;;;;;;;5.50;1.85;;;;;;;23.28;49.62;99587.59;4483618;32;34731;-79
2022/07/15 05:25:07;;;;;;;2.45;1.30;;;;;;;23.47;49.41;99591.84;4483013;32;33236;-76
2022/07/15 05:27:34;;;;;;;2.08;1.20;;;;;;;22.98;51.07;99597.06;4484233;32;34547;-83
2022/07/15 05:30:02;;;;;;;6.82;1.67;;;;;;;23.17;51.05;99594.66;4483822;32;33505;-80
2022/07/15 05:32:31;;;;;;;1.77;1.30;;;;;;;22.78;52.52;99587.59;4483394;32;34222;-82
2022/07/15 05:35:01;;;;;;;2.10;1.25;;;;;;;22.56;53.59;99591.44;4483859;32;34929;-81
2022/07/15 05:37:29;;;;;;;2.33;1.58;;;;;;;22.72;53.41;99611.84;4483654;32;33695;-78
2022/07/15 05:39:57;;;;;;;3.08;1.37;;;;;;;22.57;54.13;99610.47;4483195;32;34590;-78
2022/07/15 05:42:25;;;;;;;2.00;1.40;;;;;;;22.48;54.65;99607.75;4483751;32;35086;-79
2022/07/15 05:44:53;;;;;;;2.62;1.50;;;;;;;21.47;57.83;99616.41;4482717;32;34825;-81
2022/07/15 05:47:22;;;;;;;2.97;1.70;;;;;;;21.80;57.02;99615.88;4483564;32;34041;-84
2022/07/15 05:49:49;;;;;;;2.70;1.48;;;;;;;21.41;58.11;99625.97;4483813;32;33548;-79
2022/07/15 05:52:17;;;;;;;2.62;1.80;;;;;;;21.84;57.10;99627.91;4470191;32;34121;-79
2022/07/15 05:54:44;;;;;;;3.22;1.40;;;;;;;22.13;56.07;99627.16;4465775;32;33941;-86
2022/07/15 05:57:12;;;;;;;1.33;1.23;;;;;;;22.28;55.84;99636.09;4466464;32;33249;-87
2022/07/15 05:59:40;;;;;;;2.45;1.50;;;;;;;22.12;56.21;99661.47;4472929;32;32964;-85
2022/07/15 06:02:07;;;;;;;2.42;1.65;;;;;;;22.16;56.20;99671.88;4483118;32;33558;-79
2022/07/15 06:04:36;;;;;;;1.92;1.37;;;;;;;22.02;56.71;99672.06;4482041;32;34021;-77
2022/07/15 06:07:03;;;;;;;1.98;1.67;;;;;;;21.98;57.15;99677.41;4484084;32;33966;-79
2022/07/15 06:09:30;;;;;;;2.25;1.48;;;;;;;21.44;58.97;99671.41;4485558;32;33236;-84
2022/07/15 06:11:58;;;;;;;3.25;1.80;;;;;;;21.62;58.50;99667.56;4485699;32;33866;-80
2022/07/15 06:14:26;;;;;;;1.67;1.48;;;;;;;20.94;61.23;99667.06;4485006;32;34083;-83
2022/07/15 06:17:00;;;;;;;3.33;1.85;;;;;;;21.08;60.88;99672.50;4483508;32;33996;-80
2022/07/15 06:19:28;;;;;;;2.17;1.67;;;;;;;20.98;61.56;99667.25;4485651;32;33303;-77
2022/07/15 06:21:55;;;;;;;2.70;1.70;;;;;;;21.08;61.02;99667.78;4485156;32;34215;-76
2022/07/15 06:24:24;;;;;;;2.30;1.70;;;;;;;21.25;59.89;99668.94;4485222;32;34225;-77
2022/07/15 06:29:54;;;;;;;1.80;1.60;;;;;;;21.28;60.26;99687.63;5052792;27;20487;-74
2022/07/15 06:32:22;;;;;;;2.03;1.60;;;;;;;21.19;60.07;99689.56;4373147;32;34328;-80
2022/07/15 06:34:49;;;;;;;2.72;1.65;;;;;;;21.18;60.12;99683.19;4391277;32;34932;-71
2022/07/15 06:37:17;;;;;;;2.10;1.50;;;;;;;21.06;60.90;99674.75;4408349;32;34804;-81
2022/07/15 06:39:45;;;;;;;2.60;1.70;;;;;;;20.61;62.15;99659.19;4398940;32;34185;-79
2022/07/15 06:42:12;;;;;;;2.00;1.60;;;;;;;21.25;60.23;99693.75;4392681;32;34031;-76
2022/07/15 06:44:39;;;;;;;1.98;1.60;;;;;;;21.36;59.90;99717.19;4392695;32;33934;-76
2022/07/15 06:47:07;;;;;;;1.85;1.52;;;;;;;20.95;61.49;99721.13;4392740;32;33581;-84
2022/07/15 06:49:35;;;;;;;3.30;1.77;;;;;;;20.83;62.34;99729.19;4393001;32;33546;-76
2022/07/15 06:52:02;;;;;;;1.90;1.60;;;;;;;;;;4392634;32;34160;-72
2022/07/15 06:54:30;;;;;;;2.37;1.50;;;;;;;21.46;60.13;99750.00;4392726;32;35427;-77
2022/07/15 06:56:59;;;;;;;2.10;1.60;;;;;;;21.75;59.25;99778.97;4392784;32;34047;-81
2022/07/15 06:59:27;;;;;;;2.62;1.83;;;;;;;21.61;59.75;99794.87;4393126;32;33563;-79
2022/07/15 07:05:57;;;;;;;2.58;1.90;;;;;;;22.31;57.74;99801.28;4392362;32;33972;-83
2022/07/15 07:08:25;;;;;;;3.70;2.10;;;;;;;21.67;59.99;99810.16;4392774;32;34387;-77
2022/07/15 07:10:52;;;;;;;2.10;1.83;;;;;;;21.94;58.61;99808.22;4378839;32;33206;-80
2022/07/15 07:13:20;;;;;;;2.12;1.80;;;;;;;21.87;59.01;99803.19;4377273;32;34486;-72
2022/07/15 07:15:47;;;;;;;2.55;1.95;;;;;;;21.60;60.08;99798.78;4377188;32;35420;-70
2022/07/15 07:18:15;;;;;;;2.40;1.92;;;;;;;21.25;61.10;99795.84;4377057;32;33888;-79
2022/07/15 07:20:43;;;;;;;2.37;1.70;;;;;;;21.53;60.49;99798.41;4377654;32;33468;-78
2022/07/15 07:23:11;;;;;;;2.50;2.10;;;;;;;21.90;60.03;99786.78;4377060;32;34737;-66
2022/07/15 07:25:38;;;;;;;2.53;1.90;;;;;;;21.97;60.16;99794.59;4377131;32;34762;-82
2022/07/15 07:28:05;;;;;;;2.92;1.95;;;;;;;21.81;62.74;99810.81;4379619;32;33887;-75
2022/07/15 07:30:34;;;;;;;2.65;2.28;;;;;;;21.20;63.90;99804.28;4391811;32;33719;-74
2022/07/15 07:33:02;;;;;;;2.05;1.85;;;;;;;21.68;62.59;99822.81;4395271;32;34000;-76
2022/07/15 07:35:30;;;;;;;2.58;1.92;;;;;;;;;;4407603;32;33966;-75
2022/07/15 07:37:57;;;;;;;3.28;2.20;;;;;;;21.62;64.19;99807.53;4407331;32;34157;-80
2022/07/15 07:40:25;;;;;;;2.80;2.10;;;;;;;21.80;63.41;99795.37;4406782;32;33304;-74
2022/07/15 07:42:52;;;;;;;3.05;2.15;;;;;;;20.87;66.50;99802.69;4407027;32;34494;-76
2022/07/15 07:45:20;;;;;;;3.47;2.40;;;;;;;21.23;64.75;99793.44;4407255;32;34227;-79
2022/07/15 07:47:47;;;;;;;2.53;2.00;;;;;;;20.37;67.57;99800.06;4407295;32;34126;-78
2022/07/15 07:50:15;;;;;;;2.90;2.03;;;;;;;20.88;66.14;99820.88;4407155;32;33519;-78
2022/07/15 07:52:43;;;;;;;3.35;2.20;;;;;;;21.24;64.71;99817.13;4393236;32;33931;-74
2022/07/15 07:55:10;;;;;;;3.35;2.12;;;;;;;21.06;64.60;99805.22;4406982;32;33804;-68
2022/07/15 07:57:53;;;;;;;3.00;2.47;;;;;;;21.38;63.21;99802.41;4406797;32;34597;-77
2022/07/15 08:00:22;;;;;;;3.08;2.70;;;;;;;21.26;65.27;99822.34;4407611;32;33614;-79
2022/07/15 08:02:50;;;;;;;4.55;2.37;;;;;;;21.38;64.55;99797.72;4407144;32;33587;-69
2022/07/15 08:05:17;;;;;;;3.55;2.30;;;;;;;21.68;64.00;99809.00;4407520;32;33865;-73
2022/07/15 08:08:18;;;;;;;2.83;2.07;;;;;;;21.51;64.23;99798.72;4407271;32;34272;-76
2022/07/15 08:10:51;;;;;;;3.83;2.80;;;;;;;21.47;65.24;99817.09;4407761;32;33328;-66
2022/07/15 08:13:21;;;;;;;3.67;2.90;;;;;;;21.78;63.21;99830.81;4405323;32;33784;-67
2022/07/15 08:15:49;;;;;;;3.92;2.58;;;;;;;21.90;63.52;99839.28;4392012;32;34221;-66
2022/07/15 08:18:26;;;;;;;4.30;2.72;;;;;;;22.21;63.20;99856.87;4392406;32;33961;-66
2022/07/15 08:20:54;;;;;;;2.92;2.33;;;;;;;21.92;63.49;99850.81;4392663;32;33510;-66
2022/07/15 08:23:21;;;;;;;2.97;2.37;;;;;;;21.96;63.99;99856.50;4391694;32;34518;-69
2022/07/15 08:25:50;;;;;;;3.90;2.95;;;;;;;22.09;64.20;99861.09;4407390;32;35071;-72
2022/07/15 08:28:18;;;;;;;4.75;2.72;;;;;;;22.22;63.59;99856.56;4407669;32;33990;-66
2022/07/15 08:30:47;;;;;;;3.90;2.78;;;;;;;22.59;62.60;99851.53;4406032;32;33089;-74
2022/07/15 08:33:14;;;;;;;3.67;3.12;;;;;;;22.50;63.11;99856.22;4406999;32;33936;-67
2022/07/15 08:35:43;;;;;;;4.35;2.90;;;;;;;22.86;61.54;99855.87;4407225;32;34049;-71
2022/07/15 08:38:11;;;;;;;3.92;2.62;;;;;;;22.76;61.75;99864.50;4393579;32;33955;-71
2022/07/15 08:40:39;;;;;;;5.82;2.70;;;;;;;22.99;61.86;99851.28;4407501;32;34177;-67
2022/07/15 08:43:08;;;;;;;4.87;2.67;;;;;;;22.83;62.21;99853.78;4393198;32;33758;-76
2022/07/15 08:45:38;;;;;;;3.65;2.78;;;;;;;22.78;63.42;99847.59;4393470;32;34206;-70
2022/07/15 08:48:07;;;;;;;3.78;2.85;;;;;;;23.04;62.21;99837.28;4407305;32;34153;-75
2022/07/15 08:50:36;;;;;;;4.00;3.17;;;;;;;23.19;61.00;99847.00;4393598;32;33941;-65
2022/07/15 08:53:04;;;;;;;6.45;3.12;;;;;;;23.37;60.90;99869.94;4406838;32;34025;-62
2022/07/15 08:55:31;;;;;;;3.72;2.80;;;;;;;23.38;60.08;99865.19;4407010;32;35094;-63
2022/07/15 08:57:59;;;;;;;4.43;3.22;;;;;;;23.49;59.32;99869.22;4402759;32;34250;-65
2022/07/15 09:00:30;;;;;;;4.60;3.20;;;;;;;22.99;61.73;99870.66;4392309;32;33628;-61
2022/07/15 09:02:59;;;;;;;4.32;3.15;;;;;;;23.18;60.16;99870.31;4391917;32;33834;-62
2022/07/15 09:05:44;;;;;;;4.00;3.15;;;;;;;23.37;58.83;99869.09;4390874;32;34006;-64
2022/07/15 09:08:16;;;;;;;4.15;3.10;;;;;;;23.02;60.46;99872.78;4391714;32;33744;-65
2022/07/15 09:10:56;;;;;;;4.22;2.90;;;;;;;23.27;60.15;99857.25;4391707;32;34326;-66
2022/07/15 09:13:30;;;;;;;4.05;3.20;;;;;;;23.30;60.47;99889.81;4378057;32;34610;-66
2022/07/15 09:16:00;;;;;;;4.95;3.20;;;;;;;23.17;61.13;99898.31;4391585;32;33752;-65
2022/07/15 09:18:35;;;;;;;4.15;3.30;;;;;;;22.80;62.15;99882.06;4392086;32;33924;-63
2022/07/15 09:21:17;;;;;;;4.65;3.37;;;;;;;22.90;61.33;99856.03;4391860;32;34176;-66
2022/07/15 09:23:45;;;;;;;4.90;3.42;;;;;;;22.83;62.26;99850.16;4391271;32;34645;-64
2022/07/15 09:26:26;;;;;;;4.32;3.28;;;;;;;23.08;62.53;99873.44;4391723;32;34203;-70
2022/07/15 09:28:55;;;;;;;4.60;3.20;;;;;;;23.43;60.80;99882.41;4391964;32;33531;-63
2022/07/15 09:34:24;;;;;;;6.37;3.40;;;;;;;23.38;62.88;99898.41;4391453;32;34024;-63
2022/07/15 09:36:54;;;;;;;4.50;3.60;;;;;;;23.36;63.18;99903.47;4391921;32;34175;-64
2022/07/15 09:39:23;;;;;;;6.70;3.67;;;;;;;22.92;65.98;99909.91;4392063;32;34764;-66
2022/07/15 09:41:52;;;;;;;5.68;3.60;;;;;;;23.05;65.48;99904.53;4390115;32;33578;-68
2022/07/15 09:44:29;;;;;;;4.05;3.30;;;;;;;23.50;63.00;99913.19;4391456;32;34027;-66
2022/07/15 09:47:01;;;;;;;4.07;3.30;;;;;;;23.81;61.37;99912.13;4391992;32;34047;-65
2022/07/15 09:49:29;;;;;;;4.75;3.22;;;;;;;23.64;61.36;99912.97;4391555;32;33968;-68
2022/07/15 09:52:08;;;;;;;5.57;3.92;;;;;;;23.65;61.18;99908.22;4391776;32;33607;-67
2022/07/15 09:54:45;;;;;;;6.05;3.60;;;;;;;23.75;60.03;99917.00;4391375;32;34765;-69
2022/07/15 09:57:15;;;;;;;4.03;3.30;;;;;;;23.41;61.08;99914.34;4392691;32;35123;-66
2022/07/15 09:59:47;;;;;;;4.60;3.42;;;;;;;23.32;62.17;99901.34;4406427;32;34076;-63
2022/07/15 10:02:15;;;;;;;4.82;3.53;;;;;;;23.16;63.49;99886.44;4392753;32;34254;-66
2022/07/15 10:04:43;;;;;;;3.75;3.30;;;;;;;23.10;62.24;99879.44;4376701;32;34093;-68
2022/07/15 10:07:12;;;;;;;4.87;3.28;;;;;;;23.44;58.89;99850.03;4376075;32;34997;-71
2022/07/15 10:09:55;;;;;;;3.72;2.83;;;;;;;23.55;58.80;99816.06;4376011;32;33776;-68
2022/07/15 10:12:46;;;;;;;3.87;3.05;;;;;;;23.19;60.36;99816.56;4363836;32;33416;-70
2022/07/15 10:15:29;;;;;;;4.75;3.00;;;;;;;24.07;56.68;99836.31;4362735;32;33953;-72
2022/07/15 10:18:18;;;;;;;3.78;3.20;;;;;;;23.94;57.78;99852.88;4374958;32;35119;-69
2022/07/15 10:21:13;;;;;;;6.57;3.20;;;;;;;23.93;57.92;99854.03;4388810;32;33525;-73
2022/07/15 10:24:05;;;;;;;3.78;3.10;;;;;;;23.99;57.64;99848.28;4373756;32;33433;-71
2022/07/15 10:26:58;;;;;;;3.95;3.03;;;;;;;23.88;57.26;99829.25;4375829;32;33981;-72
2022/07/15 10:29:29;;;;;;;4.12;3.37;;;;;;;23.87;58.17;99805.50;4375324;32;34276;-71
2022/07/15 10:31:59;;;;;;;3.17;2.67;;;;;;;23.67;59.35;99797.91;4360392;32;34183;-73
2022/07/15 10:34:31;;;;;;;3.55;2.70;;;;;;;23.36;56.47;99792.72;4375073;32;33310;-72
2022/07/15 10:37:06;;;;;;;3.00;2.10;;;;;;;23.25;54.59;99809.72;4375414;32;34671;-70
2022/07/15 10:40:10;;;;;;;3.25;2.08;;;;;;;23.55;51.28;99809.72;4375482;32;34284;-72
2022/07/15 10:42:57;;;;;;;2.12;1.65;;;;;;;23.93;49.81;99820.78;4348517;32;33854;-72
2022/07/15 10:45:25;;;;;;;3.08;1.90;;;;;;;24.44;46.61;99839.28;4388297;32;34334;-71
2022/07/15 10:48:24;;;;;;;2.60;1.70;;;;;;;24.22;46.25;99843.22;4390505;32;33750;-71
2022/07/15 10:50:52;;;;;;;2.12;1.50;;;;;;;24.64;44.87;99846.78;4390492;32;34301;-72
2022/07/15 10:53:23;;;;;;;3.60;1.60;;;;;;;24.86;42.03;99856.72;4389013;32;33763;-72
2022/07/15 10:55:52;;;;;;;2.37;1.70;;;;;;;24.77;41.63;99850.41;4392423;32;34233;-70
2022/07/15 10:58:19;;;;;;;2.28;1.35;;;;;;;25.13;41.19;99849.69;4391582;32;34759;-70
2022/07/15 11:00:47;;;;;;;3.65;1.65;;;;;;;25.41;38.39;99849.06;4392726;32;34174;-72
2022/07/15 11:03:17;;;;;;;2.25;1.40;;;;;;;25.07;37.04;99839.97;4392472;32;34783;-73
2022/07/15 11:05:46;;;;;;;1.50;1.30;;;;;;;24.83;36.58;99842.69;4391145;32;34301;-70
2022/07/15 11:08:31;;;;;;;1.98;1.30;;;;;;;24.96;36.02;99839.59;4392191;32;33877;-72
2022/07/15 11:11:14;;;;;;;1.90;1.60;;;;;;;25.18;36.03;99846.72;4392917;32;34331;-73
2022/07/15 11:13:45;;;;;;;1.77;1.30;;;;;;;25.08;36.14;99849.13;4392207;32;33847;-71
2022/07/15 11:16:15;;;;;;;1.92;1.42;;;;;;;25.31;34.61;99844.81;4392367;32;34359;-74
2022/07/15 11:18:50;;;;;;;2.20;1.58;;;;;;;25.20;34.53;99838.06;4392447;32;34689;-67
2022/07/15 11:21:20;;;;;;;1.98;1.55;;;;;;;25.10;34.22;99838.50;4378724;32;35127;-73
2022/07/15 11:23:49;;;;;;;2.12;1.52;;;;;;;25.37;35.31;99837.84;4390233;32;34861;-68
2022/07/15 11:26:17;;;;;;;2.28;1.60;;;;;;;25.02;32.85;99834.66;4392290;32;33571;-72
2022/07/15 11:28:54;;;;;;;1.73;1.35;;;;;;;25.17;35.09;99835.94;4392476;32;34704;-72
2022/07/15 11:31:22;;;;;;;2.12;1.30;;;;;;;25.75;34.57;99836.69;4392076;32;35095;-68
2022/07/15 11:33:56;;;;;;;3.62;1.73;;;;;;;25.90;34.36;99835.19;4391773;32;35018;-73
2022/07/15 11:36:24;;;;;;;2.65;1.83;;;;;;;25.95;32.51;99834.94;4378901;32;33767;-70
2022/07/15 11:38:52;;;;;;;4.50;1.50;;;;;;;26.36;32.98;99840.53;4391767;32;33735;-72
2022/07/15 11:44:29;;;;;;;2.75;1.30;;;;;;;26.40;32.72;99833.09;4391392;32;34103;-67
2022/07/15 11:46:58;;;;;;;3.47;1.52;;;;;;;26.29;29.61;99832.78;4392209;32;33048;-64
2022/07/15 11:49:33;;;;;;;2.37;1.50;;;;;;;26.66;31.25;99834.66;4391782;32;33893;-67
2022/07/15 11:52:03;;;;;;;1.95;1.50;;;;;;;26.95;31.85;99831.44;4391953;32;34333;-69
2022/07/15 11:54:31;;;;;;;2.40;1.62;;;;;;;27.13;31.86;99814.41;4391522;32;33836;-75
2022/07/15 11:57:01;;;;;;;3.37;1.70;;;;;;;26.92;30.30;99836.94;4392081;32;34310;-77
2022/07/15 11:59:29;;;;;;;2.67;1.85;;;;;;;26.45;29.57;99830.06;4391987;32;33999;-68
2022/07/15 12:02:11;;;;;;;2.78;1.70;;;;;;;26.39;29.51;99846.19;4390357;32;35101;-67